ADDS METAR Data INFO
IDs: Format: Raw Decoded Include TAF

Data at: 2010 UTC 18 Jul 2018

KROG 181958Z 13007KT 100V180 10SM FEW100 29/23 A2999 RMK AO2 SLP138 T02890228
KROG 181858Z 17006KT 10SM CLR 28/22 A3001 RMK AO2 SLP145 T02780222
KROG 181758Z 15008KT 10SM FEW100 28/22 A3001 RMK AO2 SLP145 60000 T02830222 10283 20222 58006
KROG 181658Z 22003KT 10SM CLR 27/23 A3003 RMK AO2 SLP152 T02670228
KROG 181558Z 12004KT 10SM CLR 24/22 A3002 RMK AO2 SLP152 T02440222
KROG 181458Z 11007KT 10SM CLR 23/22 A3003 RMK AO2 RAB36E57 SLP153 P0000 60000 T02330222 58001
KROG 181358Z 14008KT 10SM CLR 23/22 A3003 RMK AO2 SLP156 T02330217
KROG 181258Z 10004KT 10SM SCT110 23/22 A3003 RMK AO2 SLP156 T02280217
KROG 181158Z 12008KT 10SM BKN100 BKN120 23/22 A3003 RMK AO2 LTG DSNT SE AND S TSE13RAE34 SLP155 P0007 60010 70038 T02280217 10233 20228 50003
KROG 181116Z 15007KT 4SM +RA BR FEW008 SCT038 OVC047 23/22 A3004 RMK AO2 LTG DSNT S AND SW TSE13 P0006
KROG 181110Z 19008KT 10SM VCTS -RA FEW005 BKN043 OVC049 23/22 A3006 RMK AO2 LTG DSNT S AND SW P0000
KROG 181058Z 22007KT 8SM VCTS -RA BKN041 BKN050 OVC065 23/22 A3006 RMK AO2 LTG DSNT S-W TSB32E47B51RAB27 SLP164 P0003 T02280222
KROG 181054Z 23005KT 8SM VCTS -RA SCT043 BKN050 OVC085 23/22 A3006 RMK AO2 LTG DSNT S-W TSB32E47B51RAB27 P0002
KROG 181050Z 25003KT 8SM -RA BKN046 BKN065 OVC090 23/22 A3005 RMK AO2 LTG DSNT S-W TSB32E47RAB27 PRESRR P0002
KROG 181035Z 03007KT 10SM VCTS -RA SCT070 OVC090 23/22 A3003 RMK AO2 LTG DSNT SW-NW TSB32RAB27 P0001
KROG 180958Z AUTO 08003KT 10SM BKN090 OVC110 23/22 A3002 RMK AO2 SLP151 T02330222
KROG 180858Z AUTO 00000KT 10SM SCT100 23/22 A3002 RMK AO2 SLP153 60000 T02280222 58005
KROG 180758Z AUTO 00000KT 10SM OVC100 23/22 A3003 RMK AO2 SLP158 T02330217
KROG 180658Z AUTO 12003KT 10SM FEW100 23/22 A3003 RMK AO2 RAE02 SLP153 P0000 T02280222
KROG 180558Z AUTO 12005KT 10SM -RA BKN100 23/22 A3004 RMK AO2 RAE16B35 SLP154 P0001 60001 T02330222 10250 20233 58004
KROG 180458Z AUTO 13006KT 10SM -RA FEW050 OVC090 24/22 A3005 RMK AO2 RAB57 SLP160 P0000 T02390222 403220217
KROG 180358Z AUTO 11005KT 10SM BKN090 OVC110 24/22 A3005 RMK AO2 SLP159 T02390222
KROG 180258Z AUTO 10006KT 10SM OVC110 24/23 A3005 RMK AO2 SLP160 T02390228 53006
KROG 180158Z AUTO 10003KT 10SM FEW120 24/22 A3004 RMK AO2 SLP158 T02390222
KROG 180058Z AUTO 11004KT 10SM CLR 24/22 A3003 RMK AO2 SLP153 T02390222
KROG 172358Z 13003KT 10SM CLR 25/22 A3003 RMK AO2 SLP156 60027 T02500222 10322 20217 56014
KROG 172258Z 16005KT 10SM FEW075 SCT120 24/22 A3005 RMK AO2 SLP163 T02440217
KROG 172158Z 15007KT 10SM SCT120 23/22 A3005 RMK AO2 LTG DSNT SE RAE42 SLP163 P0001 T02280217
KROG 172058Z 00000KT 10SM -RA FEW055 22/21 A3007 RMK AO2 LTG DSNT NE-S TSE43 SLP171 P0010 60026 T02220211 58000
KROG 172046Z 00000KT 10SM -RA FEW033 SCT075 BKN090 22/21 A3008 RMK AO2 LTG DSNT ALQDS TSE43 P0010
KROG 171958Z 35011G23KT 3SM +TSRA BR SCT007 BKN034 OVC055 22/21 A3012 RMK AO2 PK WND 31033/1935 WSHFT 1928 LTG DSNT ALQDS TSB23E47B49RAB47 SLP187 P0016 T02220211
KROG 171949Z 34014G28KT 7SM -TSRA FEW009 SCT046 BKN060 24/21 A3010 RMK AO2 PK WND 31033/1935 WSHFT 1928 LTG DSNT ALQDS TSB23E47B49RAB47 P0000
KROG 171945Z 32015G29KT 10SM TS SCT046 BKN055 25/20 A3011 RMK AO2 PK WND 31033/1935 WSHFT 1928 LTG DSNT ALQDS TSB23 PRESRR
KROG 171926Z 31004KT 10SM TS CLR 32/21 A3007 RMK AO2 LTG DSNT ALQDS TSB23
KROG 171858Z 04005KT 10SM CLR 32/21 A3006 RMK AO2 LTG DSNT W AND NW SLP162 T03220211
KROG 171758Z VRB04KT 10SM CLR 32/23 A3008 RMK AO2 SLP168 T03170228 10322 20228 56007
KROG 171658Z 11007KT 090V150 10SM CLR 31/23 A3008 RMK AO2 SLP168 T03060228
KROG 171558Z 13004KT 10SM CLR 31/23 A3009 RMK AO2 SLP174 T03060228
KROG 171458Z 10005KT 10SM CLR 28/23 A3010 RMK AO2 SLP176 T02830233 53004
KROG 171358Z 11005KT 10SM CLR 26/23 A3009 RMK AO2 SLP174 T02610233
KROG 171258Z 12003KT 10SM CLR 24/23 A3009 RMK AO2 SLP175 T02440228
KROG 171253Z 13003KT 10SM CLR 24/23 A3009
KROG 171158Z 06003KT 10SM CLR 23/22 A3008 RMK AO2 SLP173 70099 T02280222 10233 20217 53010
KROG 171150Z 12004KT 10SM CLR 23/22 A3008
KROG 171058Z 14003KT 10SM CLR 22/22 A3006 RMK AO2 SLP165 T02220217
KROG 171057Z 14003KT 10SM CLR 22/22 A3006
KROG 170958Z AUTO 15003KT 10SM CLR 22/22 A3006 RMK AO2 SLP165 T02220217
KROG 170858Z AUTO 00000KT 10SM CLR 22/22 A3005 RMK AO2 SLP163 T02220217 58005